createdAt,value
2023-05-01T00:04:35.174Z,-0.46
2023-05-01T00:09:38.391Z,-0.49
2023-05-01T00:14:42.130Z,-0.47
2023-05-01T00:19:45.326Z,-0.48
2023-05-01T00:24:49.358Z,-0.55
2023-05-01T00:29:52.671Z,-0.64
2023-05-01T00:34:57.846Z,-0.70
2023-05-01T00:40:01.253Z,-0.74
2023-05-01T00:45:04.801Z,-0.77
2023-05-01T00:50:08.720Z,-0.80
2023-05-01T00:55:12.129Z,-0.86
2023-05-01T01:00:17.067Z,-0.92
2023-05-01T01:05:24.728Z,-0.94
2023-05-01T01:10:30.073Z,-0.96
2023-05-01T01:15:38.573Z,-0.96
2023-05-01T01:20:49.171Z,-1.00
2023-05-01T01:26:10.915Z,-1.03
2023-05-01T01:31:37.082Z,-1.07
2023-05-01T01:36:58.818Z,-1.12
2023-05-01T01:42:06.764Z,-1.12
2023-05-01T01:47:14.145Z,-1.14
2023-05-01T01:52:19.081Z,-1.15
2023-05-01T01:57:24.040Z,-1.18
2023-05-01T02:02:29.611Z,-1.25
2023-05-01T02:07:33.300Z,-1.29
2023-05-01T02:12:37.904Z,-1.30
2023-05-01T02:17:41.924Z,-1.34
2023-05-01T02:22:46.565Z,-1.41
2023-05-01T02:28:10.861Z,-1.47
2023-05-01T02:33:14.064Z,-1.54
2023-05-01T02:38:17.685Z,-1.61
2023-05-01T02:43:23.074Z,-1.66
2023-05-01T02:48:28.710Z,-1.68
2023-05-01T02:53:33.325Z,-1.71
2023-05-01T02:58:37.249Z,-1.71
2023-05-01T03:03:40.195Z,-1.65
2023-05-01T03:08:43.403Z,-1.60
2023-05-01T03:13:47.734Z,-1.58
2023-05-01T03:18:50.742Z,-1.43
2023-05-01T03:23:54.156Z,-1.02
2023-05-01T03:28:57.265Z,-0.59
2023-05-01T03:34:00.166Z,0.00
2023-05-01T03:39:04.937Z,0.72
2023-05-01T03:44:07.808Z,1.35
2023-05-01T03:49:10.721Z,1.85
2023-05-01T03:54:13.739Z,2.77
2023-05-01T03:59:16.737Z,4.24
2023-05-01T04:04:19.659Z,5.88
2023-05-01T04:09:22.647Z,7.28
2023-05-01T04:14:25.961Z,8.14
2023-05-01T04:19:28.883Z,8.95
2023-05-01T04:24:31.869Z,9.95
2023-05-01T04:29:34.774Z,11.09
2023-05-01T04:34:38.288Z,12.00
2023-05-01T04:39:41.399Z,12.57
2023-05-01T04:44:45.873Z,13.46
2023-05-01T04:49:48.736Z,14.70
2023-05-01T04:54:51.645Z,15.59
2023-05-01T04:59:54.788Z,16.13
2023-05-01T05:04:57.964Z,16.50
2023-05-01T05:10:00.870Z,16.96
2023-05-01T05:15:03.885Z,17.69
2023-05-01T05:20:07.821Z,18.27
2023-05-01T05:25:10.913Z,18.42
2023-05-01T05:30:14.142Z,18.54
2023-05-01T05:35:17.238Z,18.70
2023-05-01T05:40:20.546Z,19.03
2023-05-01T05:45:23.961Z,19.34
2023-05-01T05:50:26.971Z,19.56
2023-05-01T05:55:29.988Z,19.76
2023-05-01T06:00:33.315Z,20.05
2023-05-01T06:05:36.431Z,20.31
2023-05-01T06:10:43.561Z,20.48
2023-05-01T06:15:47.151Z,20.66
2023-05-01T06:20:50.251Z,20.77
2023-05-01T06:25:53.139Z,20.71
2023-05-01T06:30:56.379Z,20.74
2023-05-01T06:36:00.248Z,20.74
2023-05-01T06:41:05.667Z,20.94
2023-05-01T06:46:08.648Z,21.10
2023-05-01T06:51:15.047Z,20.98
2023-05-01T06:56:18.038Z,20.92
2023-05-01T07:01:21.369Z,20.81
2023-05-01T07:06:24.487Z,20.75
2023-05-01T07:11:27.880Z,20.61
2023-05-01T07:16:30.929Z,20.72
2023-05-01T07:21:33.991Z,20.65
2023-05-01T07:26:37.817Z,20.57
2023-05-01T07:31:42.155Z,20.35
2023-05-01T07:36:45.363Z,20.09
2023-05-01T07:41:48.474Z,20.27
2023-05-01T07:46:51.690Z,20.38
2023-05-01T07:51:55.896Z,20.37
2023-05-01T07:56:58.923Z,20.61
2023-05-01T08:02:02.184Z,20.40
2023-05-01T08:07:05.252Z,20.17
2023-05-01T08:12:08.356Z,20.00
2023-05-01T08:17:11.569Z,19.95
2023-05-01T08:22:14.573Z,19.66
2023-05-01T08:27:18.092Z,19.61
2023-05-01T08:32:21.820Z,19.54
2023-05-01T08:37:24.931Z,19.37
2023-05-01T08:42:29.878Z,19.33
2023-05-01T08:47:39.722Z,18.93
2023-05-01T08:52:44.056Z,17.95
2023-05-01T08:57:48.725Z,17.13
2023-05-01T09:02:52.339Z,16.52
2023-05-01T09:07:55.451Z,15.98
2023-05-01T09:13:04.014Z,15.49
2023-05-01T09:18:09.271Z,15.11
2023-05-01T09:23:12.355Z,14.95
2023-05-01T09:28:16.046Z,14.95
2023-05-01T09:33:19.095Z,14.81
2023-05-01T09:38:24.675Z,14.67
2023-05-01T09:43:29.760Z,14.71
2023-05-01T09:48:35.690Z,14.62
2023-05-01T09:53:40.944Z,14.65
2023-05-01T09:58:44.770Z,14.65
2023-05-01T10:03:54.478Z,14.66
2023-05-01T10:08:58.050Z,14.57
2023-05-01T10:14:11.332Z,14.76
2023-05-01T10:19:17.000Z,14.93
2023-05-01T10:24:20.489Z,15.08
2023-05-01T10:29:24.732Z,15.23
2023-05-01T10:34:28.848Z,15.33
2023-05-01T10:39:33.109Z,15.26
2023-05-01T10:44:36.306Z,15.27
2023-05-01T10:50:09.005Z,15.44
2023-05-01T10:55:34.865Z,15.65
2023-05-01T11:00:37.848Z,15.70
2023-05-01T11:06:05.738Z,15.75
2023-05-01T11:11:24.104Z,15.85
2023-05-01T11:16:42.553Z,15.95
2023-05-01T11:21:45.993Z,15.98
2023-05-01T11:26:49.927Z,16.02
2023-05-01T11:31:53.233Z,16.08
2023-05-01T11:36:56.344Z,16.23
2023-05-01T11:42:09.910Z,16.41
2023-05-01T11:47:13.925Z,16.51
2023-05-01T11:52:17.239Z,16.67
2023-05-01T11:57:20.553Z,16.78
2023-05-01T12:02:23.939Z,16.82
2023-05-01T12:07:27.081Z,16.89
2023-05-01T12:12:30.494Z,16.87
2023-05-01T12:17:33.826Z,16.87
2023-05-01T12:22:49.325Z,16.95
2023-05-01T12:27:52.880Z,17.09
2023-05-01T12:32:59.209Z,17.17
2023-05-01T12:38:12.889Z,17.17
2023-05-01T12:43:16.997Z,17.24
2023-05-01T12:48:20.983Z,17.34
2023-05-01T12:53:25.957Z,17.38
2023-05-01T12:58:37.238Z,17.34
2023-05-01T13:03:44.988Z,17.33
2023-05-01T13:08:48.209Z,17.33
2023-05-01T13:13:51.319Z,17.29
2023-05-01T13:18:54.425Z,17.29
2023-05-01T13:23:59.800Z,17.28
2023-05-01T13:29:05.890Z,17.25
2023-05-01T13:34:08.976Z,17.16
2023-05-01T13:39:21.330Z,17.10
2023-05-01T13:44:24.507Z,17.16
2023-05-01T13:49:27.724Z,17.08
2023-05-01T13:54:30.729Z,17.02
2023-05-01T13:59:45.738Z,17.06
2023-05-01T14:04:49.441Z,17.07
2023-05-01T14:10:00.020Z,16.92
2023-05-01T14:15:05.325Z,16.90
2023-05-01T14:20:08.884Z,16.96
2023-05-01T14:25:25.431Z,17.03
2023-05-01T14:30:38.483Z,17.16
2023-05-01T14:35:50.066Z,17.15
2023-05-01T14:40:53.091Z,17.00
2023-05-01T14:45:56.356Z,16.90
2023-05-01T14:51:00.449Z,16.81
2023-05-01T14:56:03.649Z,16.63
2023-05-01T15:01:06.665Z,16.50
2023-05-01T15:06:10.298Z,16.43
2023-05-01T15:11:14.434Z,16.39
2023-05-01T15:16:17.572Z,16.37
2023-05-01T15:21:20.634Z,16.31
2023-05-01T15:26:23.643Z,16.24
2023-05-01T15:31:26.676Z,16.19
2023-05-01T15:36:29.749Z,16.11
2023-05-01T15:41:32.756Z,16.05
2023-05-01T15:46:36.683Z,15.96
2023-05-01T15:51:39.795Z,15.88
2023-05-01T15:56:42.805Z,15.78
2023-05-01T16:01:45.909Z,15.71
2023-05-01T16:06:49.256Z,15.65
2023-05-01T16:11:52.345Z,15.58
2023-05-01T16:16:55.368Z,15.50
2023-05-01T16:21:58.749Z,15.40
2023-05-01T16:27:02.227Z,15.31
2023-05-01T16:32:06.234Z,15.22
2023-05-01T16:37:09.202Z,15.08
2023-05-01T16:42:13.409Z,14.95
2023-05-01T16:47:17.130Z,14.85
2023-05-01T16:52:20.369Z,14.77
2023-05-01T16:57:23.473Z,14.69
2023-05-01T17:02:26.669Z,14.58
2023-05-01T17:07:29.815Z,14.45
2023-05-01T17:12:32.907Z,14.33
2023-05-01T17:17:37.269Z,14.17
2023-05-01T17:22:40.459Z,14.01
2023-05-01T17:27:43.664Z,13.80
2023-05-01T17:32:46.790Z,13.57
2023-05-01T17:37:50.187Z,13.35
2023-05-01T17:42:53.303Z,13.12
2023-05-01T17:47:56.369Z,12.88
2023-05-01T17:52:59.422Z,12.62
2023-05-01T17:58:02.523Z,12.38
2023-05-01T18:03:06.521Z,12.09
2023-05-01T18:08:09.660Z,11.81
2023-05-01T18:13:13.183Z,11.57
2023-05-01T18:18:16.410Z,11.37
2023-05-01T18:23:19.608Z,11.16
2023-05-01T18:28:23.018Z,10.96
2023-05-01T18:33:26.193Z,10.78
2023-05-01T18:38:29.353Z,10.55
2023-05-01T18:43:32.554Z,10.31
2023-05-01T18:48:36.297Z,10.11
2023-05-01T18:53:39.595Z,9.95
2023-05-01T18:58:42.811Z,9.86
2023-05-01T19:03:46.232Z,9.78
2023-05-01T19:08:49.322Z,9.61
2023-05-01T19:13:52.952Z,9.45
2023-05-01T19:18:56.260Z,9.30
2023-05-01T19:23:59.364Z,9.13
2023-05-01T19:29:02.374Z,9.01
2023-05-01T19:34:05.486Z,8.92
2023-05-01T19:39:08.490Z,8.89
2023-05-01T19:44:11.702Z,8.85
2023-05-01T19:49:14.708Z,8.85
2023-05-01T19:54:17.641Z,8.83
2023-05-01T19:59:20.936Z,8.78
2023-05-01T20:04:24.499Z,8.70
2023-05-01T20:09:27.671Z,8.63
2023-05-01T20:14:33.466Z,8.50
2023-05-01T20:19:39.724Z,8.33
2023-05-01T20:24:43.132Z,8.16
2023-05-01T20:29:46.132Z,8.02
2023-05-01T20:34:49.349Z,7.91
2023-05-01T20:39:52.350Z,7.87
2023-05-01T20:44:55.457Z,7.82
2023-05-01T20:49:59.003Z,7.81
2023-05-01T20:55:03.636Z,7.76
2023-05-01T21:00:08.287Z,7.70
2023-05-01T21:05:11.795Z,7.62
2023-05-01T21:10:16.734Z,7.55
2023-05-01T21:15:20.058Z,7.52
2023-05-01T21:20:34.323Z,7.50
2023-05-01T21:25:37.538Z,7.48
2023-05-01T21:30:41.148Z,7.45
2023-05-01T21:35:46.923Z,7.43
2023-05-01T21:40:49.940Z,7.39
2023-05-01T21:45:53.247Z,7.37
2023-05-01T21:50:56.967Z,7.34
2023-05-01T21:56:00.692Z,7.35
2023-05-01T22:01:03.941Z,7.34
2023-05-01T22:06:07.459Z,7.34
2023-05-01T22:11:11.046Z,7.29
2023-05-01T22:16:14.293Z,7.23
2023-05-01T22:21:17.577Z,7.20
2023-05-01T22:26:20.774Z,7.14
2023-05-01T22:31:23.920Z,7.06
2023-05-01T22:36:26.999Z,6.98
2023-05-01T22:41:30.207Z,6.93
2023-05-01T22:46:33.375Z,6.91
2023-05-01T22:51:37.538Z,6.89
2023-05-01T22:56:40.557Z,6.86
2023-05-01T23:01:44.630Z,6.85
2023-05-01T23:06:47.727Z,6.89
2023-05-01T23:11:50.907Z,6.97
2023-05-01T23:16:54.120Z,7.18
2023-05-01T23:22:08.775Z,7.47
2023-05-01T23:27:12.733Z,7.77
2023-05-01T23:32:25.103Z,8.04
2023-05-01T23:37:28.364Z,8.23
2023-05-01T23:42:31.885Z,8.35
2023-05-01T23:47:35.834Z,8.40
2023-05-01T23:52:39.025Z,8.40
2023-05-01T23:57:42.350Z,8.36
